Terminal Aerodrome Forecast
Issued by NWS

Home | Current Version | Previous Version | Text Only | Print | Product List | Glossary On
Versions: 1 2 3 4 5 6 7 8 9 10 11 12 13 14 15 16 17 18 19 20 21 22 23 24 25 26 27 28 29 30 31 32 33 34 35 36 37 38
000
FTUS43 KPAH 272000 AAA
TAFOWB
TAF AMD
KOWB 272020Z 2720/2818 35006KT P6SM OVC015
      TEMPO 2721/2724 5SM HZ
     FM280000 01005KT P6SM BKN015
     FM280600 VRB03KT P6SM SCT020
     FM281500 12005KT P6SM SCT250=

USA.gov is the U.S. government's official web portal to all federal, state and local government web resources and services.